»·PEaware :: N6966J KBFL-KMHV

N6966J :: KBFL-KMHV

FLIGHT INFORMATION

Flight Status: Arrived
Operator: Privately registered:
United States
More flights under this callsign
Pilot: Jacob K. (2665)
Aircraft: CESSNA 172 SKYHAWK
(C172)
More flights by this aircraft type
Origin: KBFL Meadows
United States
Destination: KMHV Mojave
United States
More flights between these airports :: More routes between these airports
Route: DCT
File this flight plan on PilotEdge
Remarks: CAT VI
Altitude:
(Current/Filed)
7,500ft
Speed:
(Current/Filed)
110kts
Departed: 19-Sep-18 02:31 PM
Arrived: 19-Sep-18 03:01 PM
Distance/Time
Traveled:
50nm/0:30
Distance/Time
To Go:
Arrived

Flight Plot

Page will automatically refresh every two minutes.


Map Options




Map Legend


Flown Route
Filed Route
Departure Airport
Arrival Airport
Navaid (VOR, NDB)
Fix

Horizontal Profiles

Position Reports

Time Latitude Longitude Heading Altitude Ground
Speed
19-Sep-18 14:22 35.429014 -119.045803 225 510ft 0kts
19-Sep-18 14:23 35.429013 -119.045803 225 510ft 0kts
19-Sep-18 14:24 35.429012 -119.045805 225 510ft 0kts
19-Sep-18 14:25 35.429011 -119.045807 225 510ft 0kts
19-Sep-18 14:26 35.429010 -119.045808 225 510ft 0kts
19-Sep-18 14:27 35.429009 -119.045809 225 510ft 0kts
19-Sep-18 14:28 35.428962 -119.045874 235 510ft 2kts
19-Sep-18 14:29 35.426910 -119.045552 135 510ft 20kts
19-Sep-18 14:30 35.425748 -119.044757 229 510ft 0kts
19-Sep-18 14:31 35.425747 -119.044758 229 510ft 0kts
19-Sep-18 14:32 35.425745 -119.044762 229 510ft 0kts
19-Sep-18 14:33 35.429877 -119.051281 312 595ft 70kts
19-Sep-18 14:34 35.444046 -119.069295 311 1560ft 80kts
19-Sep-18 14:35 35.458089 -119.060367 99 2676ft 93kts
19-Sep-18 14:36 35.445414 -119.029721 116 4113ft 106kts
19-Sep-18 14:37 35.431411 -118.997324 116 5579ft 106kts
19-Sep-18 14:38 35.418568 -118.967706 114 7050ft 78kts
19-Sep-18 14:39 35.405550 -118.937786 117 7476ft 129kts
19-Sep-18 14:40 35.388133 -118.898034 117 7509ft 129kts
19-Sep-18 14:41 35.371366 -118.859485 117 7516ft 129kts
19-Sep-18 14:42 35.354688 -118.821275 117 7510ft 120kts
19-Sep-18 14:43 35.339314 -118.786056 117 7529ft 116kts
19-Sep-18 14:44 35.324361 -118.751859 117 7536ft 106kts
19-Sep-18 14:45 35.310794 -118.720842 117 7561ft 109kts
19-Sep-18 14:46 35.295451 -118.685809 117 7576ft 116kts
19-Sep-18 14:47 35.279879 -118.650292 117 7577ft 124kts
19-Sep-18 14:48 35.263239 -118.612386 117 7593ft 127kts
19-Sep-18 14:49 35.246170 -118.573548 117 7596ft 133kts
19-Sep-18 14:50 35.228389 -118.533124 117 7619ft 138kts
19-Sep-18 14:51 35.210165 -118.491566 118 7600ft 139kts
19-Sep-18 14:52 35.192071 -118.450768 118 7618ft 136kts
19-Sep-18 14:53 35.174678 -118.411366 118 7616ft 122kts
19-Sep-18 14:54 35.159067 -118.376067 118 7613ft 123kts
19-Sep-18 14:55 35.142143 -118.337832 118 7599ft 131kts
19-Sep-18 14:56 35.124049 -118.298342 122 7209ft 140kts
19-Sep-18 14:57 35.103256 -118.261208 125 5983ft 131kts
19-Sep-18 14:58 35.081192 -118.222249 120 4621ft 144kts
19-Sep-18 14:59 35.069474 -118.178249 87 3778ft 121kts
19-Sep-18 15:00 35.070517 -118.139967 86 3638ft 103kts
19-Sep-18 15:01 35.057803 -118.122018 245 3334ft 70kts
19-Sep-18 15:02 35.059153 -118.145472 268 2805ft 56kts
19-Sep-18 15:03 35.059204 -118.153547 271 2794ft 13kts
19-Sep-18 15:04 35.058711 -118.156264 181 2794ft 0kts
19-Sep-18 15:05 35.058421 -118.156277 182 2794ft 7kts
19-Sep-18 15:06 35.056833 -118.156979 269 2794ft 0kts
19-Sep-18 15:07 35.056833 -118.156979 269 2794ft 0kts
19-Sep-18 15:08 35.056833 -118.156979 269 2794ft 0kts
19-Sep-18 15:09 35.056833 -118.156979 269 2794ft 0kts
19-Sep-18 15:10 35.056833 -118.156979 269 2794ft 0kts
19-Sep-18 15:11 35.056833 -118.156979 269 2794ft 0kts
19-Sep-18 15:12 35.056833 -118.156979 269 2794ft 0kts
19-Sep-18 15:13 35.056833 -118.156979 269 2794ft 0kts
19-Sep-18 15:14 35.056833 -118.156979 269 2794ft 0kts
19-Sep-18 15:15 35.056833 -118.156979 269 2794ft 0kts

Navigation Log

Ident Type
1. KBFL Airport
2. KMHV Airport